Time;durP1;ratioP1;P1;durP2;ratioP2;P2;SDS_P1;SDS_P2;PMS_P1;PMS_P2;Temp;Humidity;BMP_temperature;BMP_pressure;BME280_temperature;BME280_humidity;BME280_pressure;Samples;Min_cycle;Max_cycle;Signal;HPM_P1;HPM_P2
2021/01/16 00:00:59;;;;;;;8.43;6.67;;;;;;;;;;5054478;28;20203;-88
2021/01/16 00:03:29;;;;;;;8.20;6.60;;;;;;;;;;5054438;28;20204;-88
2021/01/16 00:06:00;;;;;;;9.73;7.03;;;;;;;;;;5036565;28;20181;-89
2021/01/16 00:08:31;;;;;;;10.67;7.63;;;;;;;;;;5054357;28;20661;-88
2021/01/16 00:10:59;;;;;;;9.23;6.53;;;;;;;;;;5036677;28;20354;-89
2021/01/16 00:13:38;;;;;;;11.97;8.07;;;;;;;;;;5036586;28;20180;-89
2021/01/16 00:16:07;;;;;;;10.03;7.33;;;;;;;;;;5054582;28;20170;-89
2021/01/16 00:18:37;;;;;;;7.30;6.20;;;;;;;;;;5036550;28;20180;-89
2021/01/16 00:21:08;;;;;;;9.97;7.07;;;;;;;;;;5036273;28;20573;-89
2021/01/16 00:23:37;;;;;;;8.70;6.40;;;;;;;;;;5036200;28;20185;-89
2021/01/16 00:26:09;;;;;;;10.33;7.43;;;;;;;;;;5036452;28;20187;-89
2021/01/16 00:28:38;;;;;;;8.93;6.67;;;;;;;;;;5036109;28;20184;-89
2021/01/16 00:31:04;;;;;;;8.53;6.43;;;;;;;;;;5036055;28;20211;-89
2021/01/16 00:33:39;;;;;;;8.73;6.23;;;;;;;;;;5036146;28;20172;-89
2021/01/16 00:36:11;;;;;;;10.90;6.80;;;;;;;;;;5036055;28;20643;-88
2021/01/16 00:38:43;;;;;;;8.40;6.87;;;;;;;;;;5053896;28;20177;-89
2021/01/16 00:41:15;;;;;;;13.33;6.83;;;;;;;;;;5035911;28;20199;-89
2021/01/16 00:43:41;;;;;;;11.73;6.57;;;;;;;;;;5036011;28;20596;-89
2021/01/16 00:46:10;;;;;;;9.90;7.40;;;;;;;;;;5036257;28;20231;-89
2021/01/16 00:48:41;;;;;;;9.00;6.50;;;;;;;;;;5036041;28;20176;-88
2021/01/16 00:51:08;;;;;;;9.53;6.77;;;;;;;;;;5035544;28;20213;-88
2021/01/16 00:53:41;;;;;;;9.27;6.97;;;;;;;;;;5036144;28;20181;-88
2021/01/16 00:56:15;;;;;;;9.90;6.67;;;;;;;;;;5053498;28;20178;-89
2021/01/16 00:58:46;;;;;;;11.17;7.10;;;;;;;;;;5053934;28;20168;-89
2021/01/16 01:01:13;;;;;;;11.90;7.80;;;;;;;;;;5035465;28;20676;-89
2021/01/16 01:03:41;;;;;;;7.90;6.20;;;;;;;;;;5053330;28;20201;-89
2021/01/16 01:06:10;;;;;;;9.70;6.93;;;;;;;;;;5035603;28;20243;-89
2021/01/16 01:08:36;;;;;;;9.33;7.50;;;;;;;;;;5035448;28;20192;-89
2021/01/16 01:11:06;;;;;;;9.80;7.27;;;;;;;;;;5035822;28;20588;-89
2021/01/16 01:13:39;;;;;;;12.97;8.20;;;;;;;;;;5053260;28;20188;-89
2021/01/16 01:16:05;;;;;;;9.30;6.83;;;;;;;;;;5035399;28;20181;-89
2021/01/16 01:18:35;;;;;;;9.67;7.00;;;;;;;;;;5035720;28;20348;-89
2021/01/16 01:21:04;;;;;;;9.90;7.47;;;;;;;;;;5035358;28;20224;-87
2021/01/16 01:23:35;;;;;;;12.23;7.53;;;;;;;;;;5035218;28;20175;-87
2021/01/16 01:26:02;;;;;;;10.63;7.70;;;;;;;;;;5035222;28;20187;-87
2021/01/16 01:28:34;;;;;;;9.23;7.33;;;;;;;;;;5035250;28;20183;-87
2021/01/16 01:31:08;;;;;;;10.40;7.50;;;;;;;;;;5035044;28;20210;-87
2021/01/16 01:33:40;;;;;;;11.13;6.87;;;;;;;;;;5035559;28;20176;-87
2021/01/16 01:36:15;;;;;;;10.47;7.10;;;;;;;;;;5035202;28;20226;-87
2021/01/16 01:38:41;;;;;;;9.07;7.17;;;;;;;;;;5035520;28;20265;-87
2021/01/16 01:41:11;;;;;;;10.10;7.63;;;;;;;;;;5052905;28;20203;-87
2021/01/16 01:43:43;;;;;;;10.20;7.60;;;;;;;;;;5052950;28;20550;-87
2021/01/16 01:46:20;;;;;;;11.70;7.90;;;;;;;;;;5053012;28;20178;-87
2021/01/16 01:48:54;;;;;;;11.20;7.53;;;;;;;;;;5052948;28;20206;-87
2021/01/16 01:51:26;;;;;;;10.30;7.63;;;;;;;;;;5034953;28;20200;-88
2021/01/16 01:53:57;;;;;;;10.67;7.77;;;;;;;;;;5053131;28;20183;-88
2021/01/16 01:56:28;;;;;;;10.27;7.30;;;;;;;;;;5035629;28;20247;-87
2021/01/16 01:58:59;;;;;;;12.40;7.33;;;;;;;;;;5035002;28;20579;-87
2021/01/16 02:01:31;;;;;;;10.77;7.90;;;;;;;;;;5034935;28;20217;-87
2021/01/16 02:03:58;;;;;;;10.60;8.07;;;;;;;;;;5035050;28;20222;-90
2021/01/16 02:06:31;;;;;;;9.20;6.77;;;;;;;;;;5035756;28;20582;-91
2021/01/16 02:09:01;;;;;;;11.57;7.90;;;;;;;;;;5035564;28;20265;-92
2021/01/16 02:11:34;;;;;;;11.67;7.17;;;;;;;;;;5053528;28;20658;-91
2021/01/16 02:14:05;;;;;;;10.00;6.80;;;;;;;;;;5037227;28;20265;-88
2021/01/16 02:16:35;;;;;;;9.93;8.00;;;;;;;;;;5056449;28;20548;-88
2021/01/16 02:19:06;;;;;;;8.33;6.40;;;;;;;;;;5057001;28;20245;-88
2021/01/16 02:21:39;;;;;;;11.00;7.37;;;;;;;;;;5038440;28;20197;-88
2021/01/16 02:24:12;;;;;;;10.70;7.27;;;;;;;;;;5038469;28;20187;-88
2021/01/16 02:26:48;;;;;;;9.27;7.10;;;;;;;;;;5038701;28;20297;-88
2021/01/16 02:29:20;;;;;;;10.30;7.67;;;;;;;;;;5038431;28;20672;-88
2021/01/16 02:32:05;;;;;;;9.60;7.17;;;;;;;;;;5056433;28;20659;-88
2021/01/16 02:34:36;;;;;;;8.33;6.47;;;;;;;;;;5056169;28;20195;-88
2021/01/16 02:37:20;;;;;;;11.23;7.70;;;;;;;;;;5038549;28;20177;-87
2021/01/16 02:40:01;;;;;;;10.23;7.57;;;;;;;;;;5038271;28;20205;-87
2021/01/16 02:42:41;;;;;;;9.80;7.83;;;;;;;;;;5038620;28;20198;-87
2021/01/16 02:45:14;;;;;;;9.73;6.87;;;;;;;;;;5055971;28;20177;-87
2021/01/16 02:48:00;;;;;;;10.20;7.47;;;;;;;;;;5038261;28;20182;-87
2021/01/16 02:50:28;;;;;;;10.40;7.43;;;;;;;;;;5055758;28;20282;-88
2021/01/16 02:53:03;;;;;;;10.73;7.67;;;;;;;;;;5038047;28;20592;-87
2021/01/16 02:55:30;;;;;;;9.97;6.60;;;;;;;;;;5056075;28;20626;-87
2021/01/16 02:57:59;;;;;;;11.37;7.77;;;;;;;;;;5037918;28;20187;-87
2021/01/16 03:00:29;;;;;;;11.33;8.03;;;;;;;;;;5055642;28;20328;-87
2021/01/16 03:03:02;;;;;;;10.67;7.30;;;;;;;;;;5037834;28;20206;-88
2021/01/16 03:05:31;;;;;;;10.53;7.20;;;;;;;;;;5037737;28;20290;-87
2021/01/16 03:08:01;;;;;;;9.63;7.57;;;;;;;;;;5055577;28;20181;-87
2021/01/16 03:10:35;;;;;;;10.77;7.17;;;;;;;;;;5037577;28;20220;-87
2021/01/16 03:13:08;;;;;;;10.30;7.67;;;;;;;;;;5055412;28;20179;-87
2021/01/16 03:15:39;;;;;;;13.67;7.73;;;;;;;;;;5055365;28;20180;-87
2021/01/16 03:18:12;;;;;;;7.57;5.87;;;;;;;;;;5055432;28;20173;-87
2021/01/16 03:20:42;;;;;;;10.87;6.83;;;;;;;;;;5037460;28;20612;-87
2021/01/16 03:23:13;;;;;;;11.40;8.10;;;;;;;;;;5037428;28;20185;-87
2021/01/16 03:25:44;;;;;;;9.70;7.63;;;;;;;;;;5036566;28;20177;-87
2021/01/16 03:28:14;;;;;;;9.80;7.27;;;;;;;;;;5037301;28;20176;-88
2021/01/16 03:30:42;;;;;;;11.00;7.73;;;;;;;;;;5037114;28;20689;-88
2021/01/16 03:33:14;;;;;;;9.87;7.17;;;;;;;;;;5037337;28;20714;-88
2021/01/16 03:35:45;;;;;;;12.37;7.27;;;;;;;;;;5055087;28;20177;-88
2021/01/16 03:38:15;;;;;;;13.07;7.30;;;;;;;;;;5037138;28;20593;-87
2021/01/16 03:40:48;;;;;;;11.20;7.57;;;;;;;;;;5054855;28;20227;-87
2021/01/16 03:43:19;;;;;;;10.30;7.43;;;;;;;;;;5036968;28;20268;-87
2021/01/16 03:45:52;;;;;;;9.23;7.17;;;;;;;;;;5055100;28;20244;-87
2021/01/16 03:48:23;;;;;;;8.87;7.20;;;;;;;;;;5037530;28;20558;-87
2021/01/16 03:50:53;;;;;;;8.97;6.70;;;;;;;;;;5036840;28;20269;-87
2021/01/16 03:53:26;;;;;;;12.10;7.57;;;;;;;;;;5037299;28;20274;-87
2021/01/16 03:55:55;;;;;;;10.97;7.77;;;;;;;;;;5036794;28;20233;-87
2021/01/16 03:58:25;;;;;;;10.33;8.17;;;;;;;;;;5054516;28;20176;-87
2021/01/16 04:00:56;;;;;;;11.53;7.47;;;;;;;;;;5036507;28;20200;-87
2021/01/16 04:03:25;;;;;;;10.40;7.27;;;;;;;;;;5036684;28;20708;-87
2021/01/16 04:05:56;;;;;;;12.60;8.20;;;;;;;;;;5054426;28;20178;-87
2021/01/16 04:08:23;;;;;;;11.40;7.10;;;;;;;;;;5036567;28;20217;-87
2021/01/16 04:10:52;;;;;;;10.40;7.10;;;;;;;;;;5036541;28;20219;-87
2021/01/16 04:13:21;;;;;;;10.43;7.13;;;;;;;;;;5036317;28;20180;-87
2021/01/16 04:15:52;;;;;;;8.77;6.23;;;;;;;;;;5036381;28;20177;-87
2021/01/16 04:18:21;;;;;;;12.53;8.57;;;;;;;;;;5036474;28;20178;-87
2021/01/16 04:20:50;;;;;;;11.23;7.97;;;;;;;;;;5036157;28;20206;-87
2021/01/16 04:23:25;;;;;;;14.37;8.67;;;;;;;;;;5054144;28;20172;-87
2021/01/16 04:25:55;;;;;;;9.10;7.03;;;;;;;;;;5036275;28;20207;-87
2021/01/16 04:28:29;;;;;;;10.63;8.40;;;;;;;;;;5036180;28;20180;-87
2021/01/16 04:31:01;;;;;;;11.33;7.80;;;;;;;;;;5036100;28;20207;-87
2021/01/16 04:33:34;;;;;;;11.20;8.43;;;;;;;;;;5036137;28;20184;-87
2021/01/16 04:36:02;;;;;;;10.10;7.40;;;;;;;;;;5053793;28;20189;-87
2021/01/16 04:38:29;;;;;;;10.33;6.77;;;;;;;;;;5053351;28;20184;-87
2021/01/16 04:40:56;;;;;;;12.13;7.47;;;;;;;;;;5036413;28;20195;-87
2021/01/16 04:43:24;;;;;;;10.13;7.13;;;;;;;;;;5035919;28;20239;-87
2021/01/16 04:45:52;;;;;;;10.43;7.83;;;;;;;;;;5036147;28;20176;-87
2021/01/16 04:48:24;;;;;;;13.80;6.77;;;;;;;;;;5053696;28;20219;-87
2021/01/16 04:50:51;;;;;;;10.87;7.00;;;;;;;;;;5035935;28;20244;-88
2021/01/16 04:53:23;;;;;;;10.03;7.07;;;;;;;;;;5035717;28;20184;-87
2021/01/16 04:55:59;;;;;;;12.50;7.97;;;;;;;;;;5053481;28;20181;-87
2021/01/16 04:58:31;;;;;;;12.40;7.50;;;;;;;;;;5035963;28;20182;-87
2021/01/16 05:01:07;;;;;;;12.03;7.07;;;;;;;;;;5035505;28;20648;-87
2021/01/16 05:03:41;;;;;;;8.97;7.07;;;;;;;;;;5035721;28;20521;-88
2021/01/16 05:06:11;;;;;;;11.07;7.30;;;;;;;;;;5053400;28;20180;-88
2021/01/16 05:08:45;;;;;;;12.13;8.80;;;;;;;;;;5035526;28;20184;-88
2021/01/16 05:11:13;;;;;;;11.90;8.30;;;;;;;;;;5053187;28;20213;-88
2021/01/16 05:13:47;;;;;;;10.07;8.10;;;;;;;;;;5035430;28;20174;-88
2021/01/16 05:16:20;;;;;;;10.30;7.60;;;;;;;;;;5035603;28;20175;-88
2021/01/16 05:18:56;;;;;;;11.07;8.20;;;;;;;;;;5035692;28;20181;-88
2021/01/16 05:21:26;;;;;;;11.83;7.73;;;;;;;;;;5035869;28;20208;-88
2021/01/16 05:23:55;;;;;;;9.97;7.50;;;;;;;;;;5035615;28;20181;-88
2021/01/16 05:26:30;;;;;;;8.80;7.40;;;;;;;;;;5035464;28;20184;-88
2021/01/16 05:28:59;;;;;;;13.00;8.00;;;;;;;;;;5035524;28;20185;-88
2021/01/16 05:31:36;;;;;;;11.47;8.67;;;;;;;;;;5035494;28;20209;-88
2021/01/16 05:34:06;;;;;;;11.30;8.07;;;;;;;;;;5035486;28;20178;-88
2021/01/16 05:36:37;;;;;;;10.20;7.50;;;;;;;;;;5035586;28;20175;-88
2021/01/16 05:39:09;;;;;;;10.87;8.17;;;;;;;;;;5035543;28;20184;-88
2021/01/16 05:41:37;;;;;;;14.07;8.27;;;;;;;;;;5035569;28;20201;-88
2021/01/16 05:44:08;;;;;;;11.47;8.27;;;;;;;;;;5035498;28;20183;-88
2021/01/16 05:46:45;;;;;;;12.77;7.57;;;;;;;;;;5053099;28;20225;-88
2021/01/16 05:49:21;;;;;;;12.30;8.27;;;;;;;;;;5056206;28;20166;-88
2021/01/16 05:51:51;;;;;;;11.13;7.23;;;;;;;;;;5057705;28;20200;-88
2021/01/16 05:54:21;;;;;;;13.30;8.87;;;;;;;;;;5039251;28;20311;-88
2021/01/16 05:56:52;;;;;;;10.27;8.10;;;;;;;;;;5039234;28;20176;-88
2021/01/16 05:59:28;;;;;;;11.87;8.63;;;;;;;;;;5039209;28;20176;-88
2021/01/16 06:02:00;;;;;;;9.37;6.83;;;;;;;;;;5039412;28;20183;-88
2021/01/16 06:04:33;;;;;;;11.10;8.30;;;;;;;;;;5039243;28;20175;-88
2021/01/16 06:07:09;;;;;;;10.40;7.80;;;;;;;;;;5039101;28;20205;-88
2021/01/16 06:09:41;;;;;;;12.37;8.13;;;;;;;;;;5038690;28;20182;-88
2021/01/16 06:12:17;;;;;;;12.00;7.50;;;;;;;;;;5038873;28;20209;-88
2021/01/16 06:14:49;;;;;;;9.27;7.30;;;;;;;;;;5056933;28;20688;-88
2021/01/16 06:17:22;;;;;;;10.27;8.00;;;;;;;;;;5056927;28;20204;-88
2021/01/16 06:19:54;;;;;;;9.53;7.00;;;;;;;;;;5038743;28;20234;-88
2021/01/16 06:22:22;;;;;;;12.43;8.33;;;;;;;;;;5039255;28;20180;-88
2021/01/16 06:24:51;;;;;;;11.90;7.80;;;;;;;;;;5038836;28;20191;-88
2021/01/16 06:27:24;;;;;;;12.27;8.07;;;;;;;;;;5056676;28;20180;-88
2021/01/16 06:30:00;;;;;;;11.80;8.10;;;;;;;;;;5038743;28;20580;-88
2021/01/16 06:32:35;;;;;;;11.93;8.23;;;;;;;;;;5038730;28;20635;-88
2021/01/16 06:35:08;;;;;;;10.83;7.63;;;;;;;;;;5038636;28;20180;-88
2021/01/16 06:37:52;;;;;;;10.67;8.20;;;;;;;;;;5038646;28;20259;-88
2021/01/16 06:40:29;;;;;;;11.50;7.60;;;;;;;;;;5038794;28;20713;-88
2021/01/16 06:42:58;;;;;;;13.53;8.77;;;;;;;;;;5038356;28;20172;-88
2021/01/16 06:45:31;;;;;;;12.37;7.57;;;;;;;;;;5038481;28;20207;-88
2021/01/16 06:48:04;;;;;;;11.90;7.67;;;;;;;;;;5038403;28;20180;-88
2021/01/16 06:50:38;;;;;;;12.57;8.63;;;;;;;;;;5056103;28;20204;-88
2021/01/16 06:53:23;;;;;;;13.77;8.97;;;;;;;;;;5038319;28;20596;-88
2021/01/16 06:56:03;;;;;;;10.73;7.80;;;;;;;;;;5038122;28;20164;-87
2021/01/16 06:58:37;;;;;;;11.33;7.67;;;;;;;;;;5056430;28;20217;-88
2021/01/16 07:01:03;;;;;;;12.70;9.00;;;;;;;;;;5037117;28;20199;-88
2021/01/16 07:03:30;;;;;;;11.60;8.20;;;;;;;;;;5038126;28;20180;-88
2021/01/16 07:06:00;;;;;;;11.23;8.17;;;;;;;;;;5038257;28;20188;-87
2021/01/16 07:08:34;;;;;;;10.93;7.90;;;;;;;;;;5038039;28;20181;-88
2021/01/16 07:11:01;;;;;;;14.27;8.33;;;;;;;;;;5056077;28;20250;-88
2021/01/16 07:13:34;;;;;;;12.87;7.80;;;;;;;;;;5038934;28;20548;-88
2021/01/16 07:16:08;;;;;;;11.13;7.83;;;;;;;;;;5037996;28;20180;-88
2021/01/16 07:18:41;;;;;;;16.50;8.67;;;;;;;;;;5056284;28;20207;-88
2021/01/16 07:21:14;;;;;;;11.47;8.37;;;;;;;;;;5037967;28;20580;-88
2021/01/16 07:23:50;;;;;;;11.30;8.50;;;;;;;;;;5055777;28;20184;-88
2021/01/16 07:26:22;;;;;;;11.63;8.87;;;;;;;;;;5038360;28;20184;-88
2021/01/16 07:28:53;;;;;;;14.17;8.37;;;;;;;;;;5055642;28;20180;-88
2021/01/16 07:31:30;;;;;;;13.87;8.17;;;;;;;;;;5037807;28;20298;-88
2021/01/16 07:34:04;;;;;;;13.33;8.50;;;;;;;;;;5055378;28;20186;-88
2021/01/16 07:36:34;;;;;;;13.10;8.40;;;;;;;;;;5038397;28;20176;-88
2021/01/16 07:39:08;;;;;;;12.40;7.30;;;;;;;;;;5037755;28;20221;-88
2021/01/16 07:41:38;;;;;;;12.33;8.73;;;;;;;;;;5055495;28;20204;-88
2021/01/16 07:44:11;;;;;;;12.43;7.33;;;;;;;;;;5037858;28;20179;-87
2021/01/16 07:46:46;;;;;;;10.67;7.53;;;;;;;;;;5037269;28;20186;-88
2021/01/16 07:49:17;;;;;;;12.17;8.40;;;;;;;;;;5055287;28;20594;-88
2021/01/16 07:51:50;;;;;;;16.97;9.47;;;;;;;;;;5037265;28;20605;-88
2021/01/16 07:54:21;;;;;;;11.43;8.03;;;;;;;;;;5037518;28;20176;-88
2021/01/16 07:57:01;;;;;;;13.77;9.50;;;;;;;;;;5037421;28;20160;-88
2021/01/16 07:59:49;;;;;;;11.10;8.27;;;;;;;;;;5037026;28;20180;-88
2021/01/16 08:02:30;;;;;;;14.60;7.63;;;;;;;;;;5055088;28;20208;-88
2021/01/16 08:05:07;;;;;;;11.10;8.43;;;;;;;;;;5037828;28;20183;-88
2021/01/16 08:07:53;;;;;;;13.03;8.30;;;;;;;;;;5037146;28;20275;-88
2021/01/16 08:10:26;;;;;;;13.67;8.67;;;;;;;;;;5054588;28;20216;-88
2021/01/16 08:13:00;;;;;;;14.20;8.83;;;;;;;;;;5036863;28;20529;-88
2021/01/16 08:15:33;;;;;;;14.13;9.53;;;;;;;;;;5054811;28;20215;-88
2021/01/16 08:18:01;;;;;;;14.70;8.87;;;;;;;;;;5054917;28;20568;-88
2021/01/16 08:20:39;;;;;;;12.00;8.57;;;;;;;;;;5036804;28;20202;-88
2021/01/16 08:23:08;;;;;;;11.83;8.77;;;;;;;;;;5054943;28;20164;-88
2021/01/16 08:25:41;;;;;;;13.97;9.57;;;;;;;;;;5036671;28;20187;-88
2021/01/16 08:28:15;;;;;;;14.50;9.67;;;;;;;;;;5036828;28;20671;-88
2021/01/16 08:30:45;;;;;;;13.47;9.07;;;;;;;;;;5036484;28;20238;-88
2021/01/16 08:33:13;;;;;;;13.40;9.00;;;;;;;;;;5036525;28;20176;-88
2021/01/16 08:35:49;;;;;;;9.73;6.67;;;;;;;;;;5036355;28;20266;-88
2021/01/16 08:38:21;;;;;;;12.47;8.53;;;;;;;;;;5054322;28;20207;-88
2021/01/16 08:40:55;;;;;;;12.73;9.13;;;;;;;;;;5054171;28;20274;-88
2021/01/16 08:43:40;;;;;;;11.60;8.30;;;;;;;;;;5054159;28;20226;-88
2021/01/16 08:46:11;;;;;;;14.33;9.37;;;;;;;;;;5036795;28;20549;-88
2021/01/16 08:48:45;;;;;;;12.70;8.77;;;;;;;;;;5036386;28;20183;-88
2021/01/16 08:51:31;;;;;;;11.10;8.27;;;;;;;;;;5036065;28;20704;-88
2021/01/16 08:54:20;;;;;;;13.43;8.43;;;;;;;;;;5036169;28;20161;-88
2021/01/16 08:56:52;;;;;;;11.50;7.10;;;;;;;;;;5036003;28;20255;-88
2021/01/16 08:59:31;;;;;;;10.63;7.93;;;;;;;;;;5035912;28;20180;-88
2021/01/16 09:02:13;;;;;;;12.50;7.77;;;;;;;;;;5053760;28;20205;-88
2021/01/16 09:04:43;;;;;;;12.60;7.33;;;;;;;;;;5035924;28;20184;-88
2021/01/16 09:07:22;;;;;;;11.57;7.37;;;;;;;;;;5053845;28;20251;-87
2021/01/16 09:10:00;;;;;;;10.60;6.70;;;;;;;;;;5053557;28;20248;-88
2021/01/16 09:12:39;;;;;;;9.27;7.57;;;;;;;;;;5053608;28;20207;-89
2021/01/16 09:15:21;;;;;;;7.40;5.90;;;;;;;;;;5035853;28;20179;-89
2021/01/16 09:18:06;;;;;;;8.97;5.40;;;;;;;;;;5035967;28;20240;-89
2021/01/16 09:20:34;;;;;;;8.70;6.20;;;;;;;;;;5035781;28;20295;-88
2021/01/16 09:23:21;;;;;;;9.87;5.73;;;;;;;;;;5034821;28;20569;-87
2021/01/16 09:26:01;;;;;;;4.23;3.50;;;;;;;;;;5035646;28;20172;-87
2021/01/16 09:28:47;;;;;;;12.13;7.43;;;;;;;;;;5035778;28;20183;-87
2021/01/16 09:31:20;;;;;;;4.23;3.47;;;;;;;;;;5035192;28;20586;-87
2021/01/16 09:33:49;;;;;;;9.43;7.50;;;;;;;;;;5035405;28;20659;-87
2021/01/16 09:36:37;;;;;;;9.43;5.60;;;;;;;;;;5035291;28;20177;-87
2021/01/16 09:39:05;;;;;;;11.07;5.73;;;;;;;;;;5053525;28;20172;-87
2021/01/16 09:41:38;;;;;;;8.67;5.87;;;;;;;;;;5035326;28;20196;-87
2021/01/16 09:44:07;;;;;;;8.70;5.57;;;;;;;;;;5053257;28;20168;-87
2021/01/16 09:46:37;;;;;;;7.17;4.90;;;;;;;;;;5035294;28;20312;-87
2021/01/16 09:49:04;;;;;;;8.77;6.00;;;;;;;;;;5053415;28;20547;-87
2021/01/16 09:51:35;;;;;;;8.23;4.87;;;;;;;;;;5053306;28;20203;-88
2021/01/16 09:54:09;;;;;;;10.27;6.40;;;;;;;;;;5053327;28;20174;-88
2021/01/16 09:56:41;;;;;;;12.27;5.97;;;;;;;;;;5054073;28;20241;-88
2021/01/16 09:59:08;;;;;;;10.80;6.70;;;;;;;;;;5035613;28;20172;-88
2021/01/16 10:01:38;;;;;;;10.37;7.40;;;;;;;;;;5035503;28;20249;-88
2021/01/16 10:04:07;;;;;;;6.37;4.93;;;;;;;;;;5035592;28;20265;-87
2021/01/16 10:06:36;;;;;;;6.03;4.77;;;;;;;;;;5053148;28;20176;-87
2021/01/16 10:09:21;;;;;;;8.77;6.47;;;;;;;;;;5053317;28;20184;-88
2021/01/16 10:11:47;;;;;;;9.10;6.77;;;;;;;;;;5053249;28;20685;-87
2021/01/16 10:14:21;;;;;;;6.17;4.63;;;;;;;;;;5035123;28;20184;-88
2021/01/16 10:16:51;;;;;;;6.83;5.50;;;;;;;;;;5036028;28;20176;-88
2021/01/16 10:19:21;;;;;;;9.10;5.97;;;;;;;;;;5035598;28;20192;-88
2021/01/16 10:21:48;;;;;;;10.27;6.90;;;;;;;;;;5035219;28;20183;-88
2021/01/16 10:24:18;;;;;;;7.53;5.30;;;;;;;;;;5035541;28;20182;-88
2021/01/16 10:26:47;;;;;;;7.03;5.30;;;;;;;;;;5035616;28;20183;-88
2021/01/16 10:29:40;;;;;;;8.67;5.80;;;;;;;;;;5053076;28;20172;-88
2021/01/16 10:32:21;;;;;;;5.83;4.23;;;;;;;;;;5053494;28;20283;-88
2021/01/16 10:34:51;;;;;;;5.63;4.33;;;;;;;;;;5037328;28;20190;-88
2021/01/16 10:37:22;;;;;;;8.73;6.43;;;;;;;;;;5038998;28;20560;-88
2021/01/16 10:39:49;;;;;;;7.53;5.70;;;;;;;;;;5056616;28;20546;-87
2021/01/16 10:42:16;;;;;;;8.63;5.53;;;;;;;;;;5056724;28;20182;-87
2021/01/16 10:44:46;;;;;;;8.37;6.17;;;;;;;;;;5056198;28;20185;-88
2021/01/16 10:47:27;;;;;;;11.00;7.23;;;;;;;;;;5038373;28;20186;-87
2021/01/16 10:49:58;;;;;;;7.03;5.60;;;;;;;;;;5038247;28;20236;-88
2021/01/16 10:52:33;;;;;;;6.80;5.10;;;;;;;;;;5055972;28;20683;-87
2021/01/16 10:55:00;;;;;;;8.27;7.03;;;;;;;;;;5038288;28;20227;-88
2021/01/16 10:57:49;;;;;;;8.53;6.87;;;;;;;;;;5037982;28;20198;-88
2021/01/16 11:00:18;;;;;;;9.43;6.33;;;;;;;;;;5056396;28;20190;-88
2021/01/16 11:02:46;;;;;;;9.17;6.17;;;;;;;;;;5055766;28;20202;-88
2021/01/16 11:05:21;;;;;;;8.97;6.70;;;;;;;;;;5055826;28;20565;-87
2021/01/16 11:07:49;;;;;;;9.00;6.30;;;;;;;;;;5037996;28;20164;-87
2021/01/16 11:10:16;;;;;;;9.67;6.90;;;;;;;;;;5037595;28;20214;-88
2021/01/16 11:12:45;;;;;;;9.13;6.60;;;;;;;;;;5037978;28;20213;-88
2021/01/16 11:15:28;;;;;;;8.43;6.67;;;;;;;;;;5037843;28;20651;-88
2021/01/16 11:17:58;;;;;;;9.47;6.53;;;;;;;;;;5037937;28;20180;-88
2021/01/16 11:20:35;;;;;;;8.07;5.80;;;;;;;;;;5037966;28;20250;-88
2021/01/16 11:23:04;;;;;;;7.40;5.30;;;;;;;;;;5037809;28;20628;-88
2021/01/16 11:25:41;;;;;;;8.33;5.73;;;;;;;;;;5037682;28;20210;-88
2021/01/16 11:28:10;;;;;;;8.43;6.20;;;;;;;;;;5037554;28;20171;-87
2021/01/16 11:30:46;;;;;;;7.37;5.07;;;;;;;;;;5055628;28;20211;-88
2021/01/16 11:33:24;;;;;;;7.00;5.33;;;;;;;;;;5037543;28;20169;-88
2021/01/16 11:35:57;;;;;;;6.33;5.00;;;;;;;;;;5037633;28;20175;-88
2021/01/16 11:38:46;;;;;;;9.20;6.33;;;;;;;;;;5037634;28;20628;-88
2021/01/16 11:41:17;;;;;;;7.53;5.73;;;;;;;;;;5037354;28;20718;-88
2021/01/16 11:43:49;;;;;;;9.83;6.03;;;;;;;;;;5037366;28;20188;-88
2021/01/16 11:46:20;;;;;;;7.23;5.00;;;;;;;;;;5036537;28;20209;-88
2021/01/16 11:48:55;;;;;;;8.53;6.67;;;;;;;;;;5055631;28;20180;-88
2021/01/16 11:51:26;;;;;;;7.03;5.20;;;;;;;;;;5037228;28;20283;-88
2021/01/16 11:53:55;;;;;;;6.93;5.67;;;;;;;;;;5037035;28;20553;-89
2021/01/16 11:56:26;;;;;;;7.57;5.60;;;;;;;;;;5036901;28;20172;-88
2021/01/16 11:58:56;;;;;;;6.73;5.23;;;;;;;;;;5037630;28;20173;-90
2021/01/16 12:01:26;;;;;;;7.70;5.93;;;;;;;;;;5037297;28;20201;-89
2021/01/16 12:03:57;;;;;;;7.53;6.30;;;;;;;;;;5037773;28;20185;-91
2021/01/16 12:06:30;;;;;;;7.97;6.40;;;;;;;;;;5036815;28;20180;-90
2021/01/16 12:09:01;;;;;;;8.57;6.00;;;;;;;;;;5036810;28;20666;-90
2021/01/16 12:11:34;;;;;;;8.07;6.60;;;;;;;;;;5036360;28;20635;-89
2021/01/16 12:14:01;;;;;;;9.57;7.03;;;;;;;;;;5054687;28;20165;-89
2021/01/16 12:16:36;;;;;;;9.57;6.50;;;;;;;;;;5036948;28;20177;-89
2021/01/16 12:19:08;;;;;;;8.03;5.87;;;;;;;;;;5036660;28;20561;-88
2021/01/16 12:21:40;;;;;;;7.80;6.37;;;;;;;;;;5036356;28;20675;-88
2021/01/16 12:24:14;;;;;;;11.00;6.50;;;;;;;;;;5036543;28;20180;-88
2021/01/16 12:26:42;;;;;;;9.40;6.13;;;;;;;;;;5054325;28;20191;-88
2021/01/16 12:29:22;;;;;;;6.03;4.70;;;;;;;;;;5036505;28;20191;-88
2021/01/16 12:32:06;;;;;;;9.83;6.90;;;;;;;;;;5036426;28;20217;-88
2021/01/16 12:34:47;;;;;;;8.83;6.60;;;;;;;;;;5037032;28;20171;-88
2021/01/16 12:37:35;;;;;;;14.40;6.00;;;;;;;;;;5036140;28;20555;-88
2021/01/16 12:40:04;;;;;;;7.70;5.77;;;;;;;;;;5036051;28;20202;-88
2021/01/16 12:42:31;;;;;;;10.90;7.33;;;;;;;;;;5036084;28;20182;-87
2021/01/16 12:45:10;;;;;;;8.83;6.20;;;;;;;;;;5036063;28;20272;-88
2021/01/16 12:47:43;;;;;;;10.67;7.57;;;;;;;;;;5054133;28;20160;-88
2021/01/16 12:50:10;;;;;;;10.10;7.07;;;;;;;;;;5036066;28;20229;-87
2021/01/16 12:52:45;;;;;;;10.27;6.83;;;;;;;;;;5035708;28;20242;-88
2021/01/16 12:55:22;;;;;;;11.20;6.90;;;;;;;;;;5053676;28;20650;-87
2021/01/16 12:57:57;;;;;;;11.10;6.73;;;;;;;;;;5052802;28;20693;-87
2021/01/16 13:00:30;;;;;;;8.17;6.17;;;;;;;;;;5053863;28;20191;-88
2021/01/16 13:03:05;;;;;;;10.03;6.83;;;;;;;;;;5053801;28;20180;-87
2021/01/16 13:05:35;;;;;;;14.97;8.37;;;;;;;;;;5036510;28;20179;-88
2021/01/16 13:08:08;;;;;;;10.97;7.80;;;;;;;;;;5035585;28;20168;-88
2021/01/16 13:10:41;;;;;;;11.57;6.97;;;;;;;;;;5035622;28;20220;-88
2021/01/16 13:13:20;;;;;;;11.30;7.00;;;;;;;;;;5053395;28;20183;-87
2021/01/16 13:15:54;;;;;;;14.07;8.43;;;;;;;;;;5036181;28;20178;-87
2021/01/16 13:18:26;;;;;;;11.30;8.23;;;;;;;;;;5053398;28;20179;-87
2021/01/16 13:20:59;;;;;;;13.27;8.10;;;;;;;;;;5035434;28;20200;-87
2021/01/16 13:23:43;;;;;;;10.10;7.07;;;;;;;;;;5035512;28;20187;-88
2021/01/16 13:26:18;;;;;;;10.73;7.67;;;;;;;;;;5035995;28;20210;-88
2021/01/16 13:28:51;;;;;;;13.83;8.43;;;;;;;;;;5035320;28;20180;-88
2021/01/16 13:31:23;;;;;;;9.50;6.63;;;;;;;;;;5035380;28;20208;-88
2021/01/16 13:33:56;;;;;;;10.57;7.10;;;;;;;;;;5053126;28;20200;-87
2021/01/16 13:36:26;;;;;;;12.10;8.57;;;;;;;;;;5035374;28;20205;-88
2021/01/16 13:38:57;;;;;;;15.77;7.03;;;;;;;;;;5035223;28;20176;-87
2021/01/16 13:41:44;;;;;;;10.27;7.77;;;;;;;;;;5035166;28;20195;-88
2021/01/16 13:44:21;;;;;;;10.10;8.03;;;;;;;;;;5035323;28;20654;-88
2021/01/16 13:46:55;;;;;;;12.80;8.60;;;;;;;;;;5035126;28;20183;-88
2021/01/16 13:49:30;;;;;;;12.27;8.03;;;;;;;;;;5052897;28;20180;-87
2021/01/16 13:52:11;;;;;;;12.20;8.87;;;;;;;;;;5053038;28;20564;-87
2021/01/16 13:54:45;;;;;;;12.87;9.00;;;;;;;;;;5053607;28;20153;-88
2021/01/16 13:57:20;;;;;;;10.90;7.60;;;;;;;;;;5053453;28;20172;-88
2021/01/16 13:59:57;;;;;;;12.07;7.87;;;;;;;;;;5035196;28;20199;-88
2021/01/16 14:02:35;;;;;;;13.53;8.87;;;;;;;;;;5035116;28;20180;-88
2021/01/16 14:05:11;;;;;;;13.37;9.77;;;;;;;;;;5052913;28;20179;-88
2021/01/16 14:07:42;;;;;;;10.50;7.07;;;;;;;;;;5035347;28;20187;-88
2021/01/16 14:10:26;;;;;;;13.63;8.90;;;;;;;;;;5055179;28;20294;-88
2021/01/16 14:13:15;;;;;;;13.23;9.23;;;;;;;;;;5038869;28;20188;-88
2021/01/16 14:16:06;;;;;;;11.20;8.03;;;;;;;;;;5038739;28;20170;-88
2021/01/16 14:18:37;;;;;;;14.40;9.47;;;;;;;;;;5038832;28;20545;-88
2021/01/16 14:21:35;;;;;;;17.50;9.30;;;;;;;;;;5038917;28;20220;-88
2021/01/16 14:24:09;;;;;;;15.17;8.53;;;;;;;;;;5027549;28;20185;-88
2021/01/16 14:26:41;;;;;;;13.17;9.73;;;;;;;;;;5057029;28;20571;-88
2021/01/16 14:29:11;;;;;;;14.37;9.83;;;;;;;;;;5056636;28;20583;-88
2021/01/16 14:31:47;;;;;;;14.03;9.27;;;;;;;;;;5038416;28;20203;-86
2021/01/16 14:34:18;;;;;;;13.67;9.43;;;;;;;;;;5039457;28;20259;-87
2021/01/16 14:37:00;;;;;;;13.53;9.30;;;;;;;;;;5038402;28;20218;-87
2021/01/16 14:39:36;;;;;;;17.70;9.30;;;;;;;;;;5038465;28;20226;-88
2021/01/16 14:42:02;;;;;;;15.93;10.53;;;;;;;;;;5038537;28;20203;-87
2021/01/16 14:44:32;;;;;;;10.93;7.90;;;;;;;;;;5038498;28;20216;-87
2021/01/16 14:47:02;;;;;;;11.87;8.40;;;;;;;;;;5038283;28;20198;-87
2021/01/16 14:49:35;;;;;;;13.63;9.60;;;;;;;;;;5038419;28;20263;-87
2021/01/16 14:52:10;;;;;;;12.23;8.63;;;;;;;;;;5056048;28;20642;-89
2021/01/16 14:54:54;;;;;;;14.97;9.00;;;;;;;;;;5038454;28;20639;-88
2021/01/16 14:57:39;;;;;;;18.87;9.83;;;;;;;;;;5038260;28;20172;-88
2021/01/16 15:00:29;;;;;;;15.33;9.43;;;;;;;;;;5056115;28;20188;-88
2021/01/16 15:03:02;;;;;;;16.93;10.10;;;;;;;;;;5046826;28;20188;-88
2021/01/16 15:05:29;;;;;;;14.90;9.90;;;;;;;;;;5037926;28;20172;-88
2021/01/16 15:08:05;;;;;;;14.87;9.10;;;;;;;;;;5055764;28;20632;-88